Relevés horaires Beauvechain (Belgique)


Relevés horaires à Beauvechain - Vendredi 12 Avr. 2019
Heure UTC1 Température [°C] Vent [km/h] Hum. [%] Pres.4 [hPa] Visi. [Km] Nébu. [octa] Préc.5 [mm] Cond.
2m. Res. Ros. Dir.2 Vit. Moy. Raf.3
23:00 0.2 0.2 -3.3 N 3.7 -- 7.4 77 1026(0.1/3h) 18 -- -- --
22:00 0.7 0.7 -3.0 NNO 1.9 -- 3.7 76 1026(0.5/3h) 20 -- -- --
21:00 1.0 1.0 -3.1 NNO 3.7 -- 11.1 74 1026(0.9/3h) 20 -- -- --
20:00 2.2 2.2 -2.9 NE 3.7 -- 9.3 69 1025.9(0.7/3h) 20 -- -- --
19:00 4.4 3.2 -2.0 NE 5.6 -- 11.1 63 1025.4(0.5/3h) 20 -- -- --
18:00 5.3 3.6 -3.1 NE 7.4 -- 14.8 55 1024.9(-0.1/3h) 20 -- -- --
17:00 5.5 3.9 -3.3 ENE 7.4 -- 13.0 53 1024.9(-0.1/3h) 20 -- -- --
16:00 6.3 5.3 -4.1 N 5.6 -- 13.0 47 1024.7(-0.6/3h) 20 7/8 -- --
15:00 6.4 4.5 -4.4 NE 9.3 -- 14.8 46 1025(-0.2/3h) 20 7/8 -- --
14:00 6.5 5 -4.5 NE 7.4 -- 13.0 45 1025(-0.4/3h) 20 7/8 -- --
13:00 6.4 4.5 -5.3 NE 9.3 -- 14.8 43 1025.4(-0.3/3h) 20 7/8 -- --
12:00 6.8 5 -4.6 NE 9.3 -- 14.8 44 1025.2(-0.3/3h) 20 7/8 -- --
11:00 6.8 5.4 -4.7 NE 7.4 -- 14.8 44 1025.4(0.2/3h) 20 5/8 -- --
10:00 5.9 3.5 -5.3 NE 11.1 -- 14.8 44 1025.7(0.4/3h) 20 5/8 -- --
09:00 5.6 3.5 -5.4 NE 9.3 -- 14.8 45 1025.5(0.4/3h) 20 5/8 -- --
08:00 4.9 3.2 -2.5 NE 7.4 -- 13.0 59 1025.2(0.6/3h) 20 5/8 -- --
07:00 3.9 2.6 -1.9 NE 5.6 -- 9.3 66 1025.4(0.9/3h) 20 6/8 -- --
06:00 2.4 2.4 -1.6 NE 3.7 -- 7.4 75 1025.2(0.7/3h) 15 7/8 -- --
05:00 0.8 0.8 -3.0 NE 3.7 -- 5.6 76 1024.9(0.1/3h) 20 -- -- --
04:00 0.8 0.8 -3.5 NNE 3.7 -- 5.6 73 1024.5(-0.2/3h) 19 -- -- --
03:00 0.6 0.6 -3.4 N 3.7 -- 7.4 74 1024.5(-0.2/3h) 18 -- -- --
02:00 1.2 1.2 -3.4 NNE 3.7 -- 5.6 71 1024.7(0.0/3h) 18 -- -- --
01:00 2.0 2.0 -3.0 NNO 3.7 -- 7.4 69 1024.7(0.3/3h) 20 -- -- --
00:00 2.4 0.9 -2.6 NE 5.6 -- 9.3 69 1024.7(0.6/3h) 18 -- -- --

1 Coordinated Universal Time. Actuellement il est 06:00 locale et 05:00 UTC.

2 Le vent souffle depuis la direction indiquée vers la direction oposée.

3 Les rafales max. sont disponible 40 min après l'heure du relevé.

4 Pour les stations d'altitude (plus de 600m) le géopotentiel du niveau le plus proche de la pression obligatoire est indiqué.

5 Les stations disposant d'un diffuseur peuvent indiquer "trace". Cela signifie que des précipitations ont touchés le sol mais que la quantité est inférieure à 0.1 mm.

Récapitulatif de la journée
Température [°C] Vent [km/h] Ensoleillement4 [h] Precipitations totale5 [mm] Pression [Hpa]
Min1 Max.2 Moy.3 Max. Min Max.
0.3 7.5 0 14.8 0 h 0 min 0 1024.5 1026.0

1 Température minimale relevée entre 18:00 UTC la veille et 18:00 UTC le jour donné.

2 Température maximale relevée entre 06:00 UTC le jour donné et 06:00 UTC le lendemain.

3 Vent moyen de la journée basé sur les relevés horaires.

4 Ensoleillement en heures relevé entre 06:00 UTC la veille et 06:00 UTC le jour donné.

5 Précipitations totales tombées entre 06:00 UTC la jour donné et 06:00 UTC le lendemain.

Graphiques horaires